Time;durP1;ratioP1;P1;durP2;ratioP2;P2;SDS_P1;SDS_P2;PMS_P1;PMS_P2;Temp;Humidity;BMP_temperature;BMP_pressure;BME280_temperature;BME280_humidity;BME280_pressure;Samples;Min_cycle;Max_cycle;Signal;HPM_P1;HPM_P2
2023/03/05 00:00:11;;;;;;;0.10;0.10;;;6.00;99.90;;;;;;5042334;28;20191;-87
2023/03/05 00:02:37;;;;;;;0.10;0.10;;;6.00;99.90;;;;;;5025161;28;20291;-87
2023/03/05 00:05:02;;;;;;;0.07;0.07;;;6.00;99.90;;;;;;5040832;28;20322;-87
2023/03/05 00:07:28;;;;;;;0.10;0.10;;;6.10;99.90;;;;;;5026457;28;20340;-86
2023/03/05 00:09:53;;;;;;;0.10;0.10;;;6.10;99.90;;;;;;5041844;28;20657;-87
2023/03/05 00:12:19;;;;;;;0.10;0.10;;;6.10;99.90;;;;;;5041512;28;20188;-86
2023/03/05 00:14:44;;;;;;;0.10;0.10;;;6.10;99.90;;;;;;5040953;28;20184;-84
2023/03/05 00:17:10;;;;;;;0.10;0.10;;;6.00;99.90;;;;;;5040990;28;20212;-84
2023/03/05 00:19:35;;;;;;;0.10;0.10;;;6.00;99.90;;;;;;5041449;28;20231;-87
2023/03/05 00:22:01;;;;;;;0.10;0.10;;;6.00;99.90;;;;;;5025295;28;20221;-86
2023/03/05 00:24:26;;;;;;;0.10;0.10;;;6.00;99.90;;;;;;5040338;28;20193;-85
2023/03/05 00:26:52;;;;;;;0.10;0.10;;;6.00;99.90;;;;;;5039776;28;20219;-87
2023/03/05 00:29:20;;;;;;;0.10;0.10;;;5.80;99.90;;;;;;5039397;28;20190;-87
2023/03/05 00:31:46;;;;;;;0.10;0.10;;;5.90;99.90;;;;;;5037819;28;20189;-86
2023/03/05 00:34:14;;;;;;;0.10;0.10;;;6.00;99.90;;;;;;5018424;28;20678;-88
2023/03/05 00:36:42;;;;;;;0.00;0.00;;;5.90;99.90;;;;;;5026061;28;20670;-87
2023/03/05 00:39:08;;;;;;;0.10;0.10;;;5.90;99.90;;;;;;5024387;28;20665;-87
2023/03/05 00:41:34;;;;;;;0.10;0.10;;;5.90;99.90;;;;;;5025673;28;20189;-86
2023/03/05 00:43:59;;;;;;;0.10;0.10;;;5.90;99.90;;;;;;5025518;28;20189;-87
2023/03/05 00:46:26;;;;;;;0.10;0.10;;;5.80;99.90;;;;;;5024773;28;20761;-87
2023/03/05 00:48:55;;;;;;;0.10;0.10;;;5.90;99.90;;;;;;5040173;28;20209;-87
2023/03/05 00:51:21;;;;;;;0.10;0.10;;;5.90;99.90;;;;;;5040573;28;20268;-87
2023/03/05 00:53:46;;;;;;;0.10;0.10;;;5.90;99.90;;;;;;5040946;28;20195;-87
2023/03/05 00:56:12;;;;;;;0.10;0.10;;;5.80;99.90;;;;;;5040153;28;20220;-87
2023/03/05 00:58:38;;;;;;;0.10;0.10;;;5.80;99.90;;;;;;5023990;28;20200;-87
2023/03/05 01:01:04;;;;;;;0.10;0.10;;;5.80;99.90;;;;;;5022946;28;20192;-87
2023/03/05 01:03:31;;;;;;;0.10;0.10;;;5.80;99.90;;;;;;5028708;28;20626;-87
2023/03/05 01:05:57;;;;;;;0.10;0.10;;;5.90;99.90;;;;;;5035828;28;20294;-87
2023/03/05 01:08:23;;;;;;;0.10;0.10;;;5.70;99.90;;;;;;5028782;28;20275;-88
2023/03/05 01:10:49;;;;;;;0.10;0.10;;;5.60;99.90;;;;;;5027161;28;20193;-87
2023/03/05 01:13:15;;;;;;;0.10;0.10;;;5.70;99.90;;;;;;5044444;28;20239;-87
2023/03/05 01:15:41;;;;;;;0.10;0.10;;;5.80;99.90;;;;;;5028825;28;20334;-87
2023/03/05 01:18:06;;;;;;;0.10;0.10;;;5.80;99.90;;;;;;5027663;28;20281;-87
2023/03/05 01:20:32;;;;;;;0.10;0.10;;;5.70;99.90;;;;;;5044781;28;20199;-87
2023/03/05 01:22:58;;;;;;;0.10;0.10;;;5.70;99.90;;;;;;5027863;28;20193;-86
2023/03/05 01:25:24;;;;;;;0.10;0.10;;;5.70;99.90;;;;;;5043465;28;20208;-85
2023/03/05 01:27:49;;;;;;;0.10;0.10;;;5.70;99.90;;;;;;5044331;28;20199;-85
2023/03/05 01:30:15;;;;;;;0.10;0.10;;;5.80;99.90;;;;;;5044428;28;20172;-86
2023/03/05 01:32:41;;;;;;;0.10;0.10;;;5.70;99.90;;;;;;5022902;28;20212;-86
2023/03/05 01:35:09;;;;;;;0.00;0.00;;;5.60;99.90;;;;;;5028154;28;20196;-87
2023/03/05 01:37:34;;;;;;;0.10;0.10;;;5.60;99.90;;;;;;5037163;28;20744;-87
2023/03/05 01:40:00;;;;;;;0.10;0.10;;;5.70;99.90;;;;;;5028989;28;20200;-87
2023/03/05 01:42:26;;;;;;;0.10;0.10;;;5.70;99.90;;;;;;5026996;28;20188;-87
2023/03/05 01:45:08;;;;;;;0.10;0.10;;;5.60;99.90;;;;;;5027681;28;20203;-87
2023/03/05 01:47:34;;;;;;;0.10;0.10;;;5.50;99.90;;;;;;5027249;28;20216;-87
2023/03/05 01:49:59;;;;;;;0.10;0.10;;;5.50;99.90;;;;;;5043581;28;20187;-87
2023/03/05 01:52:27;;;;;;;0.10;0.10;;;5.70;99.90;;;;;;5027304;28;20187;-87
2023/03/05 01:54:57;;;;;;;0.10;0.10;;;5.80;99.90;;;;;;5028193;28;20562;-85
2023/03/05 01:57:36;;;;;;;0.10;0.10;;;5.90;99.90;;;;;;5036335;28;20354;-85
2023/03/05 02:00:11;;;;;;;0.10;0.10;;;6.00;99.90;;;;;;5044948;28;20187;-86
2023/03/05 02:02:37;;;;;;;0.10;0.10;;;6.10;99.90;;;;;;5028685;28;20188;-85
2023/03/05 02:05:09;;;;;;;0.10;0.10;;;6.00;99.90;;;;;;5044488;28;20237;-86
2023/03/05 02:07:36;;;;;;;0.10;0.10;;;6.10;99.90;;;;;;5026566;28;20220;-85
2023/03/05 02:10:25;;;;;;;0.10;0.10;;;6.20;99.90;;;;;;5027457;28;20512;-85
2023/03/05 02:12:53;;;;;;;0.10;0.10;;;6.20;99.90;;;;;;5026437;28;20300;-85
2023/03/05 02:15:19;;;;;;;0.10;0.10;;;6.10;99.90;;;;;;5028825;28;20582;-85
2023/03/05 02:17:45;;;;;;;0.10;0.10;;;5.90;99.90;;;;;;5043946;28;20192;-85
2023/03/05 02:20:14;;;;;;;0.10;0.10;;;5.90;99.90;;;;;;5026673;28;20189;-85
2023/03/05 02:22:40;;;;;;;0.10;0.10;;;6.00;99.90;;;;;;5028349;28;20617;-86
2023/03/05 02:25:13;;;;;;;0.10;0.10;;;6.10;99.90;;;;;;5028448;28;20214;-85
2023/03/05 02:27:41;;;;;;;0.10;0.10;;;6.20;99.90;;;;;;5042976;28;20210;-85
2023/03/05 02:30:08;;;;;;;0.10;0.10;;;6.20;99.90;;;;;;5027718;28;20195;-85
2023/03/05 02:32:33;;;;;;;0.10;0.10;;;6.30;99.90;;;;;;5024992;28;20190;-85
2023/03/05 02:34:59;;;;;;;0.10;0.10;;;6.30;99.90;;;;;;5044043;28;20270;-85
2023/03/05 02:37:25;;;;;;;0.10;0.10;;;6.30;99.90;;;;;;5026467;28;20674;-85
2023/03/05 02:39:50;;;;;;;0.10;0.10;;;6.30;99.90;;;;;;5048413;28;20184;-85
2023/03/05 02:42:16;;;;;;;0.10;0.10;;;6.20;99.90;;;;;;5029137;28;20267;-85
2023/03/05 02:44:41;;;;;;;0.10;0.10;;;6.30;99.90;;;;;;5044132;28;20645;-85
2023/03/05 02:47:07;;;;;;;0.10;0.10;;;6.30;99.90;;;;;;5043979;28;20274;-85
2023/03/05 02:49:32;;;;;;;0.10;0.10;;;6.30;99.90;;;;;;5028212;28;20209;-85
2023/03/05 02:51:58;;;;;;;0.10;0.10;;;6.30;99.90;;;;;;5028482;28;20181;-84
2023/03/05 02:54:23;;;;;;;0.10;0.10;;;6.30;99.90;;;;;;5056732;28;20227;-85
2023/03/05 02:56:49;;;;;;;0.10;0.10;;;6.30;99.90;;;;;;5039285;28;20213;-87
2023/03/05 02:59:14;;;;;;;0.10;0.10;;;6.30;99.90;;;;;;5032747;28;20187;-85
2023/03/05 03:01:40;;;;;;;0.10;0.10;;;6.30;99.90;;;;;;5029187;28;20202;-85
2023/03/05 03:04:06;;;;;;;0.10;0.10;;;6.30;99.90;;;;;;5030195;28;20271;-87
2023/03/05 03:06:31;;;;;;;0.10;0.10;;;6.30;99.90;;;;;;5045724;28;20214;-86
2023/03/05 03:08:57;;;;;;;0.10;0.10;;;6.20;99.90;;;;;;5048730;28;20197;-86
2023/03/05 03:11:22;;;;;;;0.10;0.10;;;6.10;99.90;;;;;;5030373;28;20187;-85
2023/03/05 03:13:48;;;;;;;0.10;0.10;;;6.20;99.90;;;;;;5031371;28;20231;-86
2023/03/05 03:16:14;;;;;;;0.10;0.10;;;6.20;99.90;;;;;;5038292;28;20243;-86
2023/03/05 03:18:40;;;;;;;0.10;0.10;;;6.10;99.90;;;;;;5044879;28;20197;-86
2023/03/05 03:21:05;;;;;;;0.10;0.10;;;6.10;99.90;;;;;;5035716;28;20190;-86
2023/03/05 03:23:31;;;;;;;0.10;0.10;;;6.10;99.90;;;;;;5045206;28;20790;-87
2023/03/05 03:25:57;;;;;;;0.10;0.10;;;6.10;99.90;;;;;;5028432;28;20649;-86
2023/03/05 03:28:23;;;;;;;0.10;0.10;;;6.10;99.90;;;;;;5027538;28;20200;-85
2023/03/05 03:30:49;;;;;;;0.10;0.10;;;6.10;99.90;;;;;;5027501;28;20694;-86
2023/03/05 03:33:16;;;;;;;0.10;0.10;;;6.10;99.90;;;;;;5027055;28;20602;-86
2023/03/05 03:35:43;;;;;;;0.10;0.10;;;6.10;99.90;;;;;;5027918;28;20222;-86
2023/03/05 03:38:10;;;;;;;0.10;0.10;;;6.10;99.90;;;;;;5037181;28;20178;-85
2023/03/05 03:40:36;;;;;;;0.10;0.10;;;6.10;99.90;;;;;;5042499;28;20880;-86
2023/03/05 03:43:02;;;;;;;0.10;0.10;;;6.10;99.90;;;;;;5044210;28;20180;-86
2023/03/05 03:45:28;;;;;;;0.10;0.10;;;6.10;99.90;;;;;;5028686;28;20575;-86
2023/03/05 03:47:53;;;;;;;0.10;0.10;;;6.10;99.90;;;;;;5029452;28;20212;-85
2023/03/05 03:50:20;;;;;;;0.10;0.10;;;6.20;99.90;;;;;;5045178;28;20235;-85
2023/03/05 03:52:46;;;;;;;0.10;0.10;;;6.20;99.90;;;;;;5046234;28;20196;-86
2023/03/05 03:55:11;;;;;;;0.10;0.10;;;6.10;99.90;;;;;;5029710;28;20185;-86
2023/03/05 03:57:37;;;;;;;0.10;0.10;;;6.20;99.90;;;;;;5027866;28;20303;-86
2023/03/05 04:00:09;;;;;;;0.10;0.10;;;6.10;99.90;;;;;;5026603;28;20661;-86
2023/03/05 04:02:34;;;;;;;0.10;0.10;;;6.20;99.90;;;;;;5026266;28;20263;-85
2023/03/05 04:05:00;;;;;;;0.10;0.10;;;6.20;99.90;;;;;;5043268;28;20541;-86
2023/03/05 04:07:25;;;;;;;0.10;0.10;;;6.20;99.90;;;;;;5042508;28;20242;-86
2023/03/05 04:09:51;;;;;;;0.00;0.00;;;6.20;99.90;;;;;;5026382;28;20186;-86
2023/03/05 04:12:17;;;;;;;0.10;0.10;;;6.10;99.90;;;;;;5041489;28;20185;-86
2023/03/05 04:14:46;;;;;;;0.10;0.10;;;6.00;99.90;;;;;;5027587;28;20267;-86
2023/03/05 04:17:12;;;;;;;0.10;0.10;;;6.00;99.90;;;;;;5040155;28;20221;-86
2023/03/05 04:19:38;;;;;;;0.10;0.10;;;6.00;99.90;;;;;;5026176;28;20654;-86
2023/03/05 04:22:04;;;;;;;0.10;0.10;;;5.90;99.90;;;;;;5041837;28;20199;-85
2023/03/05 04:24:30;;;;;;;0.10;0.10;;;5.90;99.90;;;;;;5019727;28;20281;-86
2023/03/05 04:26:55;;;;;;;0.00;0.00;;;5.80;99.90;;;;;;5025744;28;20251;-86
2023/03/05 04:29:21;;;;;;;0.10;0.10;;;5.70;99.90;;;;;;5040956;28;20222;-86
2023/03/05 04:31:46;;;;;;;8.77;8.23;;;5.40;99.90;;;;;;5042122;28;20264;-87
2023/03/05 04:34:12;;;;;;;0.10;0.10;;;5.10;99.90;;;;;;5025238;28;20178;-86
2023/03/05 04:36:37;;;;;;;0.10;0.10;;;5.10;99.90;;;;;;5040902;28;20216;-86
2023/03/05 04:39:03;;;;;;;0.10;0.10;;;4.90;99.90;;;;;;5041560;28;20188;-85
2023/03/05 04:41:29;;;;;;;0.10;0.10;;;5.00;99.90;;;;;;5041300;28;20275;-85
2023/03/05 04:43:54;;;;;;;0.10;0.10;;;4.90;99.90;;;;;;5026627;28;20193;-86
2023/03/05 04:46:20;;;;;;;0.10;0.10;;;4.80;99.90;;;;;;5026357;28;20297;-86
2023/03/05 04:48:45;;;;;;;0.10;0.10;;;4.70;99.90;;;;;;5024335;28;20204;-86
2023/03/05 04:51:11;;;;;;;0.10;0.10;;;4.70;99.90;;;;;;5025207;28;20295;-86
2023/03/05 04:53:36;;;;;;;0.07;0.07;;;4.90;99.90;;;;;;5040542;28;20257;-85
2023/03/05 04:56:02;;;;;;;0.10;0.10;;;4.80;99.90;;;;;;5040226;28;20295;-86
2023/03/05 04:58:28;;;;;;;0.10;0.10;;;4.70;99.90;;;;;;5024206;28;20187;-85
2023/03/05 05:00:53;;;;;;;0.10;0.10;;;4.70;99.90;;;;;;5024549;28;20199;-86
2023/03/05 05:03:19;;;;;;;0.10;0.10;;;4.60;99.90;;;;;;5026551;28;20181;-86
2023/03/05 05:05:44;;;;;;;0.10;0.10;;;4.60;99.90;;;;;;5040905;28;20210;-86
2023/03/05 05:08:10;;;;;;;0.10;0.10;;;4.50;99.90;;;;;;5024720;28;20178;-85
2023/03/05 05:10:38;;;;;;;0.10;0.10;;;4.40;99.90;;;;;;5025247;28;20189;-85
2023/03/05 05:13:05;;;;;;;0.10;0.10;;;4.40;99.90;;;;;;5024378;28;20700;-85
2023/03/05 05:15:31;;;;;;;0.07;0.07;;;4.40;99.90;;;;;;5021487;28;20592;-85
2023/03/05 05:17:56;;;;;;;0.10;0.10;;;4.40;99.90;;;;;;5021767;28;20187;-85
2023/03/05 05:20:22;;;;;;;0.10;0.10;;;4.50;99.90;;;;;;5024111;28;20846;-85
2023/03/05 05:22:48;;;;;;;0.00;0.00;;;4.50;99.90;;;;;;5038839;28;20663;-86
2023/03/05 05:25:13;;;;;;;0.10;0.10;;;4.70;99.90;;;;;;5024266;28;20646;-86
2023/03/05 05:27:39;;;;;;;0.53;0.53;;;4.80;99.90;;;;;;5017561;28;20211;-86
2023/03/05 05:30:06;;;;;;;0.10;0.10;;;5.00;99.90;;;;;;5024565;28;20183;-85
2023/03/05 05:32:32;;;;;;;0.10;0.10;;;5.10;99.90;;;;;;5023800;28;20175;-86
2023/03/05 05:34:58;;;;;;;0.10;0.10;;;5.20;99.90;;;;;;5038292;28;20193;-85
2023/03/05 05:37:24;;;;;;;0.10;0.10;;;5.20;99.90;;;;;;5020714;28;20232;-86
2023/03/05 05:39:50;;;;;;;0.10;0.10;;;5.30;99.90;;;;;;5023620;28;20274;-86
2023/03/05 05:42:17;;;;;;;0.00;0.00;;;5.30;99.90;;;;;;5022969;28;20288;-85
2023/03/05 05:44:43;;;;;;;0.10;0.10;;;5.40;99.90;;;;;;5037070;28;20662;-85
2023/03/05 05:47:08;;;;;;;0.10;0.10;;;5.40;99.90;;;;;;5039414;28;20227;-86
2023/03/05 05:49:34;;;;;;;0.10;0.10;;;5.50;99.90;;;;;;5039612;28;20224;-86
2023/03/05 05:52:00;;;;;;;0.10;0.10;;;5.40;99.90;;;;;;5041528;28;20186;-86
2023/03/05 05:54:25;;;;;;;0.00;0.00;;;5.50;99.90;;;;;;5025890;28;20208;-85
2023/03/05 05:56:51;;;;;;;0.10;0.10;;;5.40;99.90;;;;;;5025013;28;20207;-85
2023/03/05 05:59:16;;;;;;;0.10;0.10;;;5.40;99.90;;;;;;5024818;28;20198;-84
2023/03/05 06:01:42;;;;;;;0.10;0.10;;;5.40;99.90;;;;;;5043338;28;20191;-85
2023/03/05 06:04:07;;;;;;;0.10;0.10;;;5.40;99.90;;;;;;5042727;28;20193;-85
2023/03/05 06:06:36;;;;;;;0.10;0.10;;;5.40;99.90;;;;;;5024576;28;20562;-86
2023/03/05 06:09:02;;;;;;;0.10;0.10;;;5.50;99.90;;;;;;5043584;28;20180;-84
2023/03/05 06:11:28;;;;;;;0.10;0.10;;;5.50;99.90;;;;;;5027423;28;20251;-84
2023/03/05 06:13:54;;;;;;;0.10;0.10;;;5.50;99.90;;;;;;5044368;28;20258;-84
2023/03/05 06:16:22;;;;;;;0.10;0.10;;;5.50;99.90;;;;;;5029095;28;20622;-84
2023/03/05 06:18:49;;;;;;;0.10;0.10;;;5.50;99.90;;;;;;5045168;28;20200;-83
2023/03/05 06:21:17;;;;;;;0.10;0.10;;;5.50;99.90;;;;;;5046147;28;20317;-84
2023/03/05 06:23:44;;;;;;;0.10;0.10;;;5.50;99.90;;;;;;5045450;28;20191;-84
2023/03/05 06:26:11;;;;;;;0.10;0.10;;;5.60;99.90;;;;;;5031116;28;20254;-84
2023/03/05 06:28:36;;;;;;;0.10;0.10;;;5.60;99.90;;;;;;5039066;28;20191;-84
2023/03/05 06:31:05;;;;;;;0.10;0.10;;;5.60;99.90;;;;;;5067196;28;20195;-84
2023/03/05 06:33:31;;;;;;;0.10;0.10;;;5.60;99.90;;;;;;5031094;28;20198;-84
2023/03/05 06:35:57;;;;;;;0.10;0.10;;;5.60;99.90;;;;;;5026647;28;20206;-82
2023/03/05 06:38:22;;;;;;;0.10;0.10;;;5.60;99.90;;;;;;5024287;28;20288;-84
2023/03/05 06:40:48;;;;;;;0.10;0.10;;;5.70;99.90;;;;;;5043516;28;20270;-84
2023/03/05 06:43:13;;;;;;;0.10;0.10;;;5.70;99.90;;;;;;5027292;28;20193;-84
2023/03/05 06:45:39;;;;;;;0.10;0.10;;;5.70;99.90;;;;;;5028661;28;20208;-84
2023/03/05 06:48:05;;;;;;;0.10;0.10;;;5.70;99.90;;;;;;5029890;28;20219;-84
2023/03/05 06:50:36;;;;;;;0.10;0.10;;;5.70;99.90;;;;;;5044669;28;20574;-85
2023/03/05 06:53:02;;;;;;;0.10;0.10;;;5.70;99.90;;;;;;5045591;28;20545;-85
2023/03/05 06:55:27;;;;;;;0.10;0.10;;;5.60;99.90;;;;;;5028966;28;20205;-84
2023/03/05 06:57:53;;;;;;;0.10;0.10;;;5.70;99.90;;;;;;5043917;28;20242;-84
2023/03/05 07:00:19;;;;;;;0.10;0.10;;;5.80;99.90;;;;;;5021281;28;20188;-85
2023/03/05 07:02:45;;;;;;;0.00;0.00;;;5.80;99.90;;;;;;5027210;28;20183;-85
2023/03/05 07:05:11;;;;;;;0.10;0.10;;;5.70;99.90;;;;;;5028463;28;20203;-84
2023/03/05 07:07:36;;;;;;;0.10;0.10;;;5.70;99.90;;;;;;5028196;28;20197;-84
2023/03/05 07:10:02;;;;;;;0.10;0.10;;;5.70;99.90;;;;;;5029057;28;20684;-84
2023/03/05 07:12:28;;;;;;;0.10;0.10;;;5.80;99.90;;;;;;5031672;28;20179;-84
2023/03/05 07:14:53;;;;;;;0.10;0.10;;;5.70;99.90;;;;;;5031847;28;20182;-84
2023/03/05 07:17:19;;;;;;;0.07;0.07;;;5.70;99.90;;;;;;5026962;28;20201;-85
2023/03/05 07:19:44;;;;;;;0.07;0.07;;;5.80;99.90;;;;;;5021142;28;20183;-85
2023/03/05 07:22:10;;;;;;;0.10;0.10;;;5.80;99.90;;;;;;5028825;28;20552;-84
2023/03/05 07:24:36;;;;;;;0.10;0.10;;;5.70;99.90;;;;;;5019118;28;20179;-84
2023/03/05 07:27:02;;;;;;;0.10;0.10;;;5.80;99.90;;;;;;5028308;28;20204;-85
2023/03/05 07:29:28;;;;;;;0.10;0.10;;;5.70;99.90;;;;;;5027682;28;20187;-85
2023/03/05 07:31:53;;;;;;;0.10;0.10;;;5.50;99.90;;;;;;5027371;28;20180;-85
2023/03/05 07:34:20;;;;;;;0.10;0.10;;;5.60;99.90;;;;;;5044336;28;20186;-84
2023/03/05 07:36:49;;;;;;;0.10;0.10;;;5.50;99.90;;;;;;5045014;28;20211;-85
2023/03/05 07:39:17;;;;;;;0.10;0.10;;;5.40;99.90;;;;;;5025411;28;20217;-84
2023/03/05 07:41:43;;;;;;;0.10;0.10;;;5.40;99.90;;;;;;5043380;28;20928;-84
2023/03/05 07:44:09;;;;;;;0.10;0.10;;;5.40;99.90;;;;;;5043861;28;20185;-84
2023/03/05 07:46:35;;;;;;;0.10;0.10;;;5.30;99.90;;;;;;5026962;28;20220;-84
2023/03/05 07:49:00;;;;;;;0.10;0.10;;;5.10;99.90;;;;;;5028494;28;20196;-84
2023/03/05 07:51:26;;;;;;;0.10;0.10;;;5.00;99.90;;;;;;5042376;28;20317;-84
2023/03/05 07:53:54;;;;;;;0.10;0.10;;;5.00;99.90;;;;;;5042779;28;20188;-85
2023/03/05 07:56:30;;;;;;;0.10;0.10;;;5.00;99.90;;;;;;5025134;28;20215;-84
2023/03/05 07:58:59;;;;;;;0.10;0.10;;;5.10;99.90;;;;;;5040767;28;20605;-84
2023/03/05 08:01:24;;;;;;;0.10;0.10;;;5.10;99.90;;;;;;5022431;28;20198;-83
2023/03/05 08:03:50;;;;;;;0.10;0.10;;;4.80;99.90;;;;;;5041946;28;20190;-86
2023/03/05 08:06:16;;;;;;;0.10;0.10;;;5.00;99.90;;;;;;5037903;28;20206;-84
2023/03/05 08:08:42;;;;;;;0.10;0.10;;;5.10;99.90;;;;;;5023606;28;20185;-84
2023/03/05 08:11:12;;;;;;;0.10;0.10;;;5.20;99.90;;;;;;5027854;28;20303;-84
2023/03/05 08:13:38;;;;;;;0.10;0.10;;;5.10;99.90;;;;;;5041951;28;20191;-84
2023/03/05 08:16:24;;;;;;;0.17;0.17;;;5.20;99.90;;;;;;5039789;28;20202;-84
2023/03/05 08:18:54;;;;;;;0.10;0.10;;;5.20;99.90;;;;;;5026065;28;20241;-85
2023/03/05 08:21:34;;;;;;;0.10;0.10;;;5.20;99.90;;;;;;5021973;28;20191;-85
2023/03/05 08:24:06;;;;;;;0.10;0.10;;;5.20;99.90;;;;;;5023406;28;20208;-85
2023/03/05 08:26:36;;;;;;;0.10;0.10;;;5.30;99.90;;;;;;5025185;28;20231;-86
2023/03/05 08:29:02;;;;;;;0.10;0.10;;;5.20;99.90;;;;;;5040266;28;20358;-85
2023/03/05 08:31:31;;;;;;;0.10;0.10;;;5.30;99.90;;;;;;5022895;28;20263;-86
2023/03/05 08:33:59;;;;;;;0.07;0.07;;;5.40;99.90;;;;;;5038937;28;20181;-85
2023/03/05 08:36:24;;;;;;;0.10;0.10;;;5.50;99.90;;;;;;5038341;28;20207;-86
2023/03/05 08:38:50;;;;;;;0.10;0.10;;;5.60;99.90;;;;;;5024400;28;20187;-83
2023/03/05 08:41:17;;;;;;;0.10;0.10;;;5.50;99.90;;;;;;5036864;28;20193;-84
2023/03/05 08:43:43;;;;;;;0.10;0.10;;;5.60;99.90;;;;;;5037601;28;20181;-84
2023/03/05 08:46:10;;;;;;;0.10;0.10;;;5.70;99.90;;;;;;5023025;28;20212;-84
2023/03/05 08:48:36;;;;;;;0.00;0.00;;;5.60;99.90;;;;;;5022889;28;20194;-84
2023/03/05 08:51:17;;;;;;;0.10;0.10;;;5.70;99.90;;;;;;5023283;28;20182;-84
2023/03/05 08:53:43;;;;;;;0.10;0.10;;;5.70;99.90;;;;;;5022551;28;20195;-83
2023/03/05 08:56:09;;;;;;;0.10;0.10;;;5.80;99.90;;;;;;5039682;28;20208;-83
2023/03/05 08:58:36;;;;;;;0.10;0.10;;;5.90;99.90;;;;;;5040068;28;20200;-84
2023/03/05 09:01:02;;;;;;;0.10;0.10;;;6.00;99.90;;;;;;5039763;28;20241;-84
2023/03/05 09:03:27;;;;;;;0.10;0.10;;;6.00;99.90;;;;;;5040217;28;20184;-83
2023/03/05 09:05:57;;;;;;;0.10;0.10;;;6.00;99.90;;;;;;5021167;28;20740;-84
2023/03/05 09:08:22;;;;;;;0.10;0.10;;;5.60;99.90;;;;;;5024209;28;20441;-84
2023/03/05 09:10:48;;;;;;;0.10;0.10;;;5.60;99.90;;;;;;5022647;28;20296;-84
2023/03/05 09:13:13;;;;;;;0.10;0.10;;;5.40;99.90;;;;;;5023828;28;20560;-83
2023/03/05 09:15:39;;;;;;;0.10;0.10;;;5.50;99.90;;;;;;5038329;28;20728;-84
2023/03/05 09:18:07;;;;;;;0.10;0.10;;;5.60;99.90;;;;;;5023938;28;20327;-83
2023/03/05 09:20:34;;;;;;;0.10;0.10;;;5.30;99.90;;;;;;5015134;28;20181;-83
2023/03/05 09:23:00;;;;;;;0.10;0.10;;;5.40;99.90;;;;;;5039535;28;20257;-83
2023/03/05 09:25:26;;;;;;;0.10;0.10;;;5.70;99.90;;;;;;5043170;28;20206;-83
2023/03/05 09:27:51;;;;;;;0.10;0.10;;;5.40;99.90;;;;;;5028750;28;20198;-83
2023/03/05 09:30:17;;;;;;;0.10;0.10;;;5.60;99.90;;;;;;5043937;28;20249;-84
2023/03/05 09:32:42;;;;;;;0.10;0.10;;;5.80;99.90;;;;;;5029062;28;20203;-83
2023/03/05 09:35:09;;;;;;;0.10;0.10;;;5.90;99.90;;;;;;5041632;28;20185;-84
2023/03/05 09:37:35;;;;;;;0.10;0.10;;;6.10;99.90;;;;;;5041322;28;20188;-83
2023/03/05 09:40:00;;;;;;;0.00;0.00;;;6.10;99.90;;;;;;5024323;28;20204;-83
2023/03/05 09:42:47;;;;;;;0.10;0.10;;;6.20;99.90;;;;;;5040056;28;20188;-83
2023/03/05 09:45:29;;;;;;;0.10;0.10;;;6.20;99.90;;;;;;5018611;28;20235;-83
2023/03/05 09:48:15;;;;;;;0.10;0.10;;;6.30;99.90;;;;;;5026903;28;20216;-83
2023/03/05 09:50:53;;;;;;;0.10;0.10;;;6.30;99.90;;;;;;5026918;28;20204;-83
2023/03/05 09:53:36;;;;;;;0.10;0.10;;;6.30;99.90;;;;;;5026290;28;20283;-84
2023/03/05 09:56:12;;;;;;;0.10;0.10;;;6.50;99.90;;;;;;5029766;28;20205;-84
2023/03/05 09:58:41;;;;;;;0.10;0.10;;;6.50;99.90;;;;;;5028389;28;20196;-83
2023/03/05 10:01:18;;;;;;;0.10;0.10;;;6.60;99.90;;;;;;5038993;28;20185;-83
2023/03/05 10:03:55;;;;;;;0.10;0.10;;;6.70;99.90;;;;;;5046965;28;20195;-84
2023/03/05 10:06:27;;;;;;;0.10;0.10;;;6.70;99.90;;;;;;5034016;28;20213;-83
2023/03/05 10:09:08;;;;;;;0.00;0.00;;;6.70;99.90;;;;;;5030164;28;21165;-83
2023/03/05 10:11:45;;;;;;;0.10;0.10;;;6.70;99.90;;;;;;5030428;28;20172;-83
2023/03/05 10:14:18;;;;;;;0.10;0.10;;;6.70;99.90;;;;;;5031621;28;20707;-83
2023/03/05 10:16:54;;;;;;;0.07;0.07;;;6.60;99.90;;;;;;5025475;28;20209;-83
2023/03/05 10:20:19;;;;;;;0.10;0.10;;;6.60;99.90;;;;;;5043369;28;20195;-84
2023/03/05 10:23:18;;;;;;;0.10;0.10;;;6.60;99.90;;;;;;4960295;28;20194;-83
2023/03/05 10:26:14;;;;;;;0.10;0.10;;;6.60;99.90;;;;;;4960887;28;20212;-83
2023/03/05 10:28:48;;;;;;;0.10;0.10;;;6.60;99.90;;;;;;5023220;28;20204;-84
2023/03/05 10:31:39;;;;;;;0.10;0.10;;;6.60;99.90;;;;;;5043787;28;20185;-84
2023/03/05 10:34:32;;;;;;;0.10;0.10;;;6.60;99.90;;;;;;5041676;28;20736;-83
2023/03/05 10:37:36;;;;;;;0.10;0.10;;;6.60;99.90;;;;;;5041800;28;20222;-83
2023/03/05 10:40:19;;;;;;;0.10;0.10;;;6.60;99.90;;;;;;5042630;28;20187;-83
2023/03/05 10:42:50;;;;;;;0.10;0.10;;;6.60;99.90;;;;;;5025543;28;20204;-83
2023/03/05 10:45:21;;;;;;;0.10;0.10;;;6.70;99.90;;;;;;5025087;28;20185;-83
2023/03/05 10:47:57;;;;;;;0.10;0.10;;;6.70;99.90;;;;;;5025063;28;20548;-83
2023/03/05 10:50:26;;;;;;;0.10;0.10;;;6.70;99.90;;;;;;5026910;28;20193;-84
2023/03/05 10:53:29;;;;;;;0.00;0.00;;;6.60;99.90;;;;;;5025139;28;20184;-84
2023/03/05 10:55:57;;;;;;;0.10;0.10;;;6.60;99.90;;;;;;5034745;28;20230;-83
2023/03/05 10:58:23;;;;;;;0.10;0.10;;;6.60;99.90;;;;;;5042774;28;20535;-83
2023/03/05 11:01:03;;;;;;;0.10;0.10;;;6.50;99.90;;;;;;5026071;28;20190;-83
2023/03/05 11:03:49;;;;;;;0.10;0.10;;;6.60;99.90;;;;;;5027275;28;20228;-83
2023/03/05 11:06:36;;;;;;;0.20;0.20;;;6.70;99.90;;;;;;5025331;28;20233;-84
2023/03/05 11:09:28;;;;;;;0.10;0.10;;;6.80;99.90;;;;;;5040017;28;20188;-84
2023/03/05 11:12:07;;;;;;;0.10;0.10;;;6.90;99.90;;;;;;5024930;28;20186;-83
2023/03/05 11:14:34;;;;;;;0.10;0.10;;;6.90;99.90;;;;;;5016422;28;20186;-83
2023/03/05 11:17:02;;;;;;;0.10;0.10;;;7.00;99.90;;;;;;5025911;28;20243;-84
2023/03/05 11:19:31;;;;;;;0.10;0.10;;;7.00;99.90;;;;;;5034520;28;20303;-83
2023/03/05 11:22:15;;;;;;;0.10;0.10;;;7.00;99.90;;;;;;5024266;28;20189;-84
2023/03/05 11:24:42;;;;;;;0.10;0.10;;;6.90;99.90;;;;;;5033547;28;20652;-83
2023/03/05 11:27:35;;;;;;;0.10;0.10;;;7.00;99.90;;;;;;5023977;28;20224;-83
2023/03/05 11:30:01;;;;;;;0.10;0.10;;;7.00;99.90;;;;;;5031831;28;20191;-83
2023/03/05 11:32:28;;;;;;;0.00;0.00;;;7.10;99.90;;;;;;5024870;28;20712;-83
2023/03/05 11:34:55;;;;;;;0.10;0.10;;;7.20;99.90;;;;;;5023874;28;20181;-84
2023/03/05 11:37:26;;;;;;;0.10;0.10;;;7.30;99.90;;;;;;5038084;28;20323;-83
2023/03/05 11:40:14;;;;;;;0.10;0.10;;;7.50;99.90;;;;;;5025263;28;20191;-83
2023/03/05 11:42:42;;;;;;;0.10;0.10;;;7.60;99.90;;;;;;5040332;28;20694;-84
2023/03/05 11:45:16;;;;;;;0.10;0.10;;;7.80;99.90;;;;;;5024953;28;20503;-83
2023/03/05 11:47:51;;;;;;;0.10;0.10;;;7.90;99.90;;;;;;5038601;28;20216;-83
2023/03/05 11:50:23;;;;;;;0.10;0.10;;;8.10;99.90;;;;;;5024456;28;20193;-84
2023/03/05 11:52:52;;;;;;;0.10;0.10;;;8.10;99.90;;;;;;5024292;28;20670;-83
2023/03/05 11:55:29;;;;;;;0.10;0.10;;;8.20;99.90;;;;;;5024439;28;20677;-83
2023/03/05 11:58:13;;;;;;;0.10;0.10;;;8.20;99.90;;;;;;5024610;28;20191;-83
2023/03/05 12:00:43;;;;;;;0.10;0.10;;;8.10;99.90;;;;;;5040719;28;20193;-84
2023/03/05 12:03:14;;;;;;;0.10;0.10;;;8.10;99.90;;;;;;5022493;28;20189;-83
2023/03/05 12:06:12;;;;;;;0.10;0.10;;;8.00;99.90;;;;;;5040751;28;20270;-83
2023/03/05 12:08:43;;;;;;;0.10;0.10;;;8.00;99.90;;;;;;5025028;28;20304;-83
2023/03/05 12:11:35;;;;;;;0.10;0.10;;;8.00;99.90;;;;;;5041809;28;20185;-83
2023/03/05 12:14:16;;;;;;;0.10;0.10;;;7.80;99.90;;;;;;5023250;28;20308;-83
2023/03/05 12:16:50;;;;;;;0.10;0.10;;;7.90;99.90;;;;;;5041640;28;20256;-83
2023/03/05 12:19:40;;;;;;;0.10;0.10;;;7.80;99.90;;;;;;5021626;28;20217;-83
2023/03/05 12:22:17;;;;;;;0.10;0.10;;;7.70;99.90;;;;;;5024406;28;20174;-83
2023/03/05 12:24:43;;;;;;;0.10;0.10;;;7.60;99.90;;;;;;5033099;28;20686;-83
2023/03/05 12:27:13;;;;;;;0.10;0.10;;;7.40;99.90;;;;;;5039480;28;20205;-83
2023/03/05 12:29:48;;;;;;;0.10;0.10;;;7.30;99.90;;;;;;5023149;28;20193;-83
2023/03/05 12:32:30;;;;;;;0.10;0.10;;;7.30;99.90;;;;;;5024446;28;20199;-82
2023/03/05 12:34:58;;;;;;;0.10;0.10;;;7.20;99.90;;;;;;5024054;28;20174;-83
2023/03/05 12:37:24;;;;;;;0.10;0.10;;;7.10;99.90;;;;;;5037464;28;20272;-82
2023/03/05 12:39:56;;;;;;;0.00;0.00;;;7.00;99.90;;;;;;5012725;28;20558;-83
2023/03/05 12:42:28;;;;;;;0.10;0.10;;;6.90;99.90;;;;;;5014736;28;20224;-83
2023/03/05 12:45:09;;;;;;;0.10;0.10;;;6.80;99.90;;;;;;5040507;28;20194;-83
2023/03/05 12:47:36;;;;;;;0.10;0.10;;;6.80;99.90;;;;;;5017229;28;20323;-83
2023/03/05 12:50:02;;;;;;;0.10;0.10;;;6.80;99.90;;;;;;5025331;28;20173;-83
2023/03/05 12:52:31;;;;;;;0.10;0.10;;;6.90;99.90;;;;;;5039974;28;20228;-84
2023/03/05 12:55:13;;;;;;;0.10;0.10;;;6.90;99.90;;;;;;5039400;28;20195;-82
2023/03/05 12:57:43;;;;;;;0.10;0.10;;;6.90;99.90;;;;;;5023901;28;20268;-83
2023/03/05 13:00:50;;;;;;;0.10;0.10;;;6.80;99.90;;;;;;5024266;28;21068;-83
2023/03/05 13:03:29;;;;;;;0.10;0.10;;;6.80;99.90;;;;;;5024435;28;20182;-83
2023/03/05 13:05:57;;;;;;;0.10;0.10;;;6.80;99.90;;;;;;5024353;28;20346;-83
2023/03/05 13:08:26;;;;;;;0.10;0.10;;;6.90;99.90;;;;;;5040896;28;20208;-83